createdAt,value
2018-04-11T00:00:37.966Z,37.70
2018-04-11T00:03:06.289Z,217.03
2018-04-11T00:05:33.849Z,81.17
2018-04-11T00:08:01.424Z,49.73
2018-04-11T00:10:29.010Z,30.00
2018-04-11T00:12:56.540Z,32.10
2018-04-11T00:15:24.075Z,44.07
2018-04-11T00:17:52.927Z,49.07
2018-04-11T00:20:20.795Z,52.00
2018-04-11T00:22:49.120Z,44.07
2018-04-11T00:25:16.848Z,45.10
2018-04-11T00:27:47.805Z,35.20
2018-04-11T00:30:15.621Z,35.90
2018-04-11T00:32:43.924Z,32.80
2018-04-11T00:35:11.454Z,29.73
2018-04-11T00:37:38.987Z,33.73
2018-04-11T00:40:06.552Z,32.70
2018-04-11T00:42:34.107Z,29.60
2018-04-11T00:45:01.837Z,39.87
2018-04-11T00:47:29.577Z,47.17
2018-04-11T00:49:57.485Z,41.57
2018-04-11T00:52:25.003Z,39.83
2018-04-11T00:54:52.543Z,39.50
2018-04-11T00:57:20.884Z,52.43
2018-04-11T00:59:48.417Z,62.17
2018-04-11T01:02:16.097Z,49.57
2018-04-11T01:04:43.702Z,40.60
2018-04-11T01:07:11.218Z,32.73
2018-04-11T01:09:38.745Z,33.80
2018-04-11T01:12:06.280Z,29.67
2018-04-11T01:14:34.586Z,29.50
2018-04-11T01:17:02.151Z,29.37
2018-04-11T01:19:29.743Z,34.63
2018-04-11T01:21:57.281Z,33.20
2018-04-11T01:24:24.803Z,31.93
2018-04-11T01:26:52.338Z,37.03
2018-04-11T01:29:19.867Z,32.93
2018-04-11T01:31:47.426Z,25.53
2018-04-11T01:34:14.958Z,30.83
2018-04-11T01:36:42.510Z,28.47
2018-04-11T01:39:10.066Z,25.77
2018-04-11T01:41:37.592Z,23.50
2018-04-11T01:44:05.878Z,21.30
2018-04-11T01:46:33.446Z,23.13
2018-04-11T01:49:01.729Z,18.83
2018-04-11T01:51:29.260Z,21.03
2018-04-11T01:53:57.555Z,24.47
2018-04-11T01:56:25.095Z,29.23
2018-04-11T01:58:53.462Z,33.07
2018-04-11T02:01:21.030Z,23.87
2018-04-11T02:03:48.559Z,26.37
2018-04-11T02:06:16.112Z,20.50
2018-04-11T02:08:43.645Z,18.17
2018-04-11T02:11:11.168Z,24.03
2018-04-11T02:13:39.650Z,36.37
2018-04-11T02:16:07.223Z,35.37
2018-04-11T02:18:34.784Z,33.07
2018-04-11T02:21:02.326Z,25.60
2018-04-11T02:23:30.599Z,27.67
2018-04-11T02:25:58.919Z,31.77
2018-04-11T02:28:27.099Z,21.30
2018-04-11T02:30:54.627Z,40.30
2018-04-11T02:33:22.270Z,33.90
2018-04-11T02:35:51.127Z,55.90
2018-04-11T02:38:18.671Z,456.47
2018-04-11T02:40:46.257Z,381.20
2018-04-11T02:43:13.835Z,151.57
2018-04-11T02:45:42.189Z,166.43
2018-04-11T02:48:09.723Z,115.83
2018-04-11T02:50:37.263Z,168.40
2018-04-11T02:53:04.835Z,211.70
2018-04-11T02:55:32.400Z,310.63
2018-04-11T02:57:59.961Z,231.20
2018-04-11T03:00:27.753Z,440.23
2018-04-11T03:02:55.300Z,480.63
2018-04-11T03:05:22.830Z,476.80
2018-04-11T03:07:50.363Z,566.70
2018-04-11T03:10:17.889Z,482.20
2018-04-11T03:12:45.428Z,597.47
2018-04-11T03:15:12.991Z,393.73
2018-04-11T03:17:40.551Z,468.47
2018-04-11T03:20:08.136Z,442.13
2018-04-11T03:22:36.436Z,463.27
2018-04-11T03:25:03.968Z,260.20
2018-04-11T03:27:32.258Z,238.53
2018-04-11T03:29:59.808Z,294.57
2018-04-11T03:32:28.124Z,459.33
2018-04-11T03:34:55.687Z,426.67
2018-04-11T03:37:23.248Z,343.23
2018-04-11T03:39:50.802Z,208.33
2018-04-11T03:42:18.353Z,85.80
2018-04-11T03:44:45.883Z,283.17
2018-04-11T03:47:13.426Z,283.87
2018-04-11T03:49:41.010Z,282.90
2018-04-11T03:52:08.539Z,290.03
2018-04-11T03:54:36.091Z,118.27
2018-04-11T03:57:03.614Z,96.60
2018-04-11T03:59:31.213Z,101.53
2018-04-11T04:01:58.724Z,62.53
2018-04-11T04:04:26.251Z,70.30
2018-04-11T04:06:53.777Z,81.13
2018-04-11T04:09:21.364Z,125.83
2018-04-11T04:11:48.903Z,263.73
2018-04-11T04:14:28.314Z,327.20
2018-04-11T04:17:07.849Z,448.27
2018-04-11T04:19:47.613Z,278.80
2018-04-11T04:22:15.238Z,537.63
2018-04-11T04:24:42.796Z,437.27
2018-04-11T04:27:11.107Z,475.07
2018-04-11T04:29:38.651Z,354.40
2018-04-11T04:32:06.231Z,381.63
2018-04-11T04:34:33.765Z,406.10
2018-04-11T04:37:01.330Z,516.77
2018-04-11T04:39:28.887Z,480.90
2018-04-11T04:41:56.442Z,526.60
2018-04-11T04:44:23.992Z,576.47
2018-04-11T04:46:51.547Z,546.13
2018-04-11T04:49:19.082Z,456.67
2018-04-11T04:51:46.647Z,610.50
2018-04-11T04:54:14.217Z,537.13
2018-04-11T04:56:41.750Z,682.30
2018-04-11T04:59:09.275Z,762.80
2018-04-11T05:01:36.820Z,489.17
2018-04-11T05:04:04.358Z,602.43
2018-04-11T05:06:31.929Z,623.27
2018-04-11T05:08:59.490Z,608.73
2018-04-11T05:11:27.093Z,405.97
2018-04-11T05:13:55.392Z,416.10
2018-04-11T05:16:22.957Z,462.30
2018-04-11T05:18:50.491Z,444.57
2018-04-11T05:21:18.054Z,244.03
2018-04-11T05:23:45.647Z,254.37
2018-04-11T05:26:13.224Z,314.57
2018-04-11T05:28:41.531Z,338.33
2018-04-11T05:31:09.051Z,383.57
2018-04-11T05:33:36.600Z,179.27
2018-04-11T05:36:04.202Z,290.13
2018-04-11T05:38:31.801Z,270.20
2018-04-11T05:40:59.725Z,528.80
2018-04-11T05:43:27.276Z,210.63
2018-04-11T05:45:54.789Z,215.80
2018-04-11T05:48:22.334Z,184.77
2018-04-11T05:50:49.901Z,205.00
2018-04-11T05:53:17.435Z,237.00
2018-04-11T05:55:56.828Z,113.27
2018-04-11T05:58:24.386Z,109.13
2018-04-11T06:00:52.676Z,98.43
2018-04-11T06:03:20.191Z,186.07
2018-04-11T06:05:47.718Z,166.33
2018-04-11T06:08:15.274Z,184.27
2018-04-11T06:10:43.566Z,96.60
2018-04-11T06:13:11.095Z,284.93
2018-04-11T06:15:38.904Z,119.40
2018-04-11T06:18:06.756Z,115.80
2018-04-11T06:20:34.531Z,124.07
2018-04-11T06:23:02.072Z,194.40
2018-04-11T06:25:30.366Z,127.03
2018-04-11T06:27:59.105Z,140.87
2018-04-11T06:30:26.990Z,158.33
2018-04-11T06:33:01.907Z,224.80
2018-04-11T06:35:29.519Z,193.80
2018-04-11T06:37:57.046Z,318.40
2018-04-11T06:40:24.635Z,283.07
2018-04-11T06:42:52.220Z,149.77
2018-04-11T06:45:19.760Z,326.80
2018-04-11T06:47:47.320Z,175.03
2018-04-11T06:50:14.882Z,271.17
2018-04-11T06:52:42.398Z,172.97
2018-04-11T06:55:09.970Z,216.23
2018-04-11T06:57:38.316Z,145.23
2018-04-11T07:00:05.895Z,213.27
2018-04-11T07:02:34.178Z,135.03
2018-04-11T07:05:01.729Z,112.23
2018-04-11T07:07:29.279Z,214.13
2018-04-11T07:09:57.567Z,96.57
2018-04-11T07:12:25.161Z,100.90
2018-04-11T07:14:52.682Z,113.10
2018-04-11T07:17:20.249Z,70.97
2018-04-11T07:19:47.774Z,67.23
2018-04-11T07:22:15.298Z,89.93
2018-04-11T07:24:42.824Z,89.50
2018-04-11T07:27:10.396Z,27.53
2018-04-11T07:29:37.912Z,36.93
2018-04-11T07:32:06.244Z,72.87
2018-04-11T07:34:33.779Z,35.70
2018-04-11T07:37:01.314Z,52.87
2018-04-11T07:39:29.604Z,31.67
2018-04-11T07:41:57.136Z,26.73
2018-04-11T07:44:24.684Z,25.93
2018-04-11T07:46:52.263Z,19.87
2018-04-11T07:49:21.061Z,22.90
2018-04-11T07:51:48.628Z,23.90
2018-04-11T07:54:16.137Z,19.33
2018-04-11T07:56:43.673Z,15.93
2018-04-11T07:59:11.215Z,12.53
2018-04-11T08:01:38.733Z,12.93
2018-04-11T08:04:06.284Z,12.30
2018-04-11T08:06:33.849Z,10.33
2018-04-11T08:09:01.358Z,9.67
2018-04-11T08:11:28.897Z,10.13
2018-04-11T08:13:56.425Z,9.37
2018-04-11T08:16:23.990Z,10.47
2018-04-11T08:18:52.306Z,8.77
2018-04-11T08:21:19.996Z,9.67
2018-04-11T08:23:47.057Z,9.63
2018-04-11T08:26:14.671Z,9.10
2018-04-11T08:28:42.195Z,9.33
2018-04-11T08:31:10.511Z,10.33
2018-04-11T08:33:38.068Z,9.13
2018-04-11T08:36:05.650Z,9.13
2018-04-11T08:38:33.227Z,8.20
2018-04-11T08:41:00.758Z,7.07
2018-04-11T08:43:28.299Z,8.97
2018-04-11T08:45:55.876Z,9.70
2018-04-11T08:48:23.410Z,8.83
2018-04-11T08:50:50.952Z,8.30
2018-04-11T08:53:18.538Z,8.47
2018-04-11T08:55:46.308Z,8.10
2018-04-11T08:58:13.843Z,8.90
2018-04-11T09:00:41.415Z,7.27
2018-04-11T09:03:08.978Z,7.17
2018-04-11T09:05:37.296Z,6.57
2018-04-11T09:08:04.827Z,8.90
2018-04-11T09:10:32.381Z,7.80
2018-04-11T09:12:59.916Z,7.40
2018-04-11T09:15:27.449Z,7.60
2018-04-11T09:17:54.979Z,6.37
2018-04-11T09:20:22.521Z,7.77
2018-04-11T09:22:50.055Z,7.07
2018-04-11T09:25:17.604Z,6.50
2018-04-11T09:27:45.153Z,7.10
2018-04-11T09:30:12.859Z,5.77
2018-04-11T09:32:40.421Z,4.07
2018-04-11T09:35:08.016Z,5.37
2018-04-11T09:37:35.573Z,4.53
2018-04-11T09:40:03.114Z,2.80
2018-04-11T09:42:42.042Z,3.40
2018-04-11T09:45:09.585Z,3.47
2018-04-11T09:47:37.209Z,2.90
2018-04-11T09:50:04.790Z,2.30
2018-04-11T09:52:32.717Z,4.13
2018-04-11T09:55:01.037Z,5.53
2018-04-11T09:57:28.586Z,19.50
2018-04-11T09:59:56.165Z,6.07
2018-04-11T10:02:23.987Z,4.30
2018-04-11T10:04:52.273Z,3.83
2018-04-11T10:07:19.870Z,107.67
2018-04-11T10:09:47.401Z,4.80
2018-04-11T10:12:14.949Z,7.20
2018-04-11T10:14:58.029Z,4.57
2018-04-11T10:17:25.579Z,4.20
2018-04-11T10:19:53.128Z,5.53
2018-04-11T10:22:20.679Z,5.57
2018-04-11T10:24:48.275Z,5.83
2018-04-11T10:27:15.800Z,16.33
2018-04-11T10:29:43.366Z,19.53
2018-04-11T10:32:10.933Z,19.20
2018-04-11T10:34:38.486Z,20.70
2018-04-11T10:37:06.193Z,19.93
2018-04-11T10:39:33.762Z,19.97
2018-04-11T10:42:01.330Z,20.50
2018-04-11T10:44:28.913Z,20.57
2018-04-11T10:46:56.461Z,23.60
2018-04-11T10:49:24.006Z,5.30
2018-04-11T10:51:51.563Z,9.87
2018-04-11T10:54:19.159Z,9.20
2018-04-11T10:56:46.728Z,7.60
2018-04-11T10:59:14.285Z,1999.90
2018-04-11T11:01:41.947Z,4.33
2018-04-11T11:04:16.222Z,7.77
2018-04-11T11:06:43.848Z,30.90
2018-04-11T11:09:11.550Z,48.47
2018-04-11T11:11:39.105Z,125.77
2018-04-11T11:14:06.665Z,34.13
2018-04-11T11:16:36.808Z,1999.90
2018-04-11T11:19:04.425Z,1999.90
2018-04-11T11:21:32.014Z,1999.90
2018-04-11T11:23:59.600Z,1999.90
2018-04-11T11:26:27.168Z,1999.90
2018-04-11T11:28:54.708Z,59.77
2018-04-11T11:31:22.416Z,89.60
2018-04-11T11:33:49.992Z,100.97
2018-04-11T11:36:17.551Z,1999.90
2018-04-11T11:38:45.138Z,1999.90
2018-04-11T11:41:12.715Z,1999.90
2018-04-11T11:43:41.100Z,1999.90
2018-04-11T11:46:08.735Z,1999.90
2018-04-11T11:48:36.273Z,1999.90
2018-04-11T11:51:03.881Z,1999.90
2018-04-11T11:53:31.440Z,1999.90
2018-04-11T11:55:58.985Z,1999.90
2018-04-11T11:58:26.524Z,3.03
2018-04-11T12:00:54.047Z,4.53
2018-04-11T12:03:21.605Z,143.13
2018-04-11T12:05:49.150Z,131.20
2018-04-11T12:08:16.714Z,1999.90
2018-04-11T12:10:44.317Z,1999.90
2018-04-11T12:13:12.105Z,1999.90
2018-04-11T12:15:39.676Z,1999.90
2018-04-11T12:18:07.232Z,1999.90
2018-04-11T12:20:34.831Z,1999.90
2018-04-11T12:23:02.396Z,1999.90
2018-04-11T12:25:29.930Z,3.13
2018-04-11T12:27:58.240Z,1.70
2018-04-11T12:30:25.767Z,2.80
2018-04-11T12:32:54.324Z,2.67
2018-04-11T12:35:21.869Z,1.83
2018-04-11T12:37:49.411Z,3.00
2018-04-11T12:40:16.969Z,1.83
2018-04-11T12:42:44.513Z,2.53
2018-04-11T12:45:12.043Z,3.20
2018-04-11T12:47:39.605Z,1.93
2018-04-11T12:50:07.159Z,2.77
2018-04-11T12:52:34.713Z,1.77
2018-04-11T12:55:02.243Z,1.37
2018-04-11T12:57:29.814Z,2.27
2018-04-11T12:59:57.360Z,2.17
2018-04-11T13:02:24.911Z,2.20
2018-04-11T13:04:52.449Z,2.93
2018-04-11T13:07:19.985Z,2.33
2018-04-11T13:09:47.604Z,41.60
2018-04-11T13:12:15.143Z,2.23
2018-04-11T13:14:42.664Z,2.97
2018-04-11T13:17:10.218Z,2.63
2018-04-11T13:19:37.739Z,2.03
2018-04-11T13:22:05.323Z,1.70
2018-04-11T13:24:32.869Z,2.67
2018-04-11T13:27:00.405Z,2.53
2018-04-11T13:29:27.943Z,1.40
2018-04-11T13:31:55.468Z,2.33
2018-04-11T13:34:23.010Z,2.23
2018-04-11T13:36:50.583Z,2.57
2018-04-11T13:39:18.264Z,3.17
2018-04-11T13:41:45.935Z,3.13
2018-04-11T13:44:13.604Z,2.17
2018-04-11T13:46:41.157Z,2.17
2018-04-11T13:49:08.699Z,1.70
2018-04-11T13:51:36.227Z,2.03
2018-04-11T13:54:04.537Z,1.47
2018-04-11T13:56:32.088Z,2.13
2018-04-11T13:58:59.602Z,1.43
2018-04-11T14:01:27.145Z,1.87
2018-04-11T14:03:54.711Z,1.30
2018-04-11T14:06:22.382Z,3.03
2018-04-11T14:08:49.914Z,4.20
2018-04-11T14:11:17.453Z,2.77
2018-04-11T14:13:45.114Z,1.33
2018-04-11T14:16:12.742Z,2.50
2018-04-11T14:18:41.047Z,2.30
2018-04-11T14:21:08.582Z,1.23
2018-04-11T14:23:36.127Z,2.80
2018-04-11T14:26:04.458Z,1.77
2018-04-11T14:28:33.062Z,1.43
2018-04-11T14:31:00.595Z,1.10
2018-04-11T14:33:28.153Z,1.13
2018-04-11T14:35:55.696Z,2.93
2018-04-11T14:38:23.224Z,1.57
2018-04-11T14:40:50.774Z,3.07
2018-04-11T14:43:19.074Z,1.60
2018-04-11T14:45:46.672Z,1.50
2018-04-11T14:48:14.283Z,2.30
2018-04-11T14:50:42.586Z,3.10
2018-04-11T14:53:10.180Z,2.27
2018-04-11T14:55:37.732Z,3.07
2018-04-11T14:58:05.298Z,2.10
2018-04-11T15:00:32.962Z,3.07
2018-04-11T15:03:00.560Z,3.33
2018-04-11T15:05:28.050Z,1.70
2018-04-11T15:07:55.666Z,1.57
2018-04-11T15:10:24.011Z,2.47
2018-04-11T15:12:51.568Z,2.60
2018-04-11T15:15:19.117Z,2.20
2018-04-11T15:17:46.660Z,2.40
2018-04-11T15:20:15.221Z,1.20
2018-04-11T15:22:43.063Z,2.10
2018-04-11T15:25:11.392Z,2.40
2018-04-11T15:27:39.019Z,3.13
2018-04-11T15:30:07.297Z,1.87
2018-04-11T15:32:34.881Z,1.23
2018-04-11T15:35:02.478Z,4.60
2018-04-11T15:37:30.009Z,3.27
2018-04-11T15:39:57.621Z,2.17
2018-04-11T15:42:26.001Z,1.87
2018-04-11T15:44:54.494Z,1.93
2018-04-11T15:47:22.225Z,2.23
2018-04-11T15:49:49.808Z,1.83
2018-04-11T15:52:17.351Z,1.00
2018-04-11T15:54:44.886Z,2.13
2018-04-11T15:57:12.442Z,2.20
2018-04-11T15:59:40.995Z,3.70
2018-04-11T16:02:08.551Z,1.47
2018-04-11T16:04:37.039Z,1.50
2018-04-11T16:07:05.016Z,2.80
2018-04-11T16:09:32.581Z,2.00
2018-04-11T16:12:01.336Z,3.40
2018-04-11T16:14:29.001Z,3.03
2018-04-11T16:16:56.581Z,1.30
2018-04-11T16:19:24.128Z,1.40
2018-04-11T16:21:51.708Z,2.00
2018-04-11T16:24:19.261Z,1.73
2018-04-11T16:26:47.921Z,1.97
2018-04-11T16:29:15.518Z,1.97
2018-04-11T16:31:43.090Z,2.77
2018-04-11T16:34:10.753Z,1.67
2018-04-11T16:36:38.376Z,16.67
2018-04-11T16:39:05.948Z,42.87
2018-04-11T16:41:33.554Z,3.17
2018-04-11T16:44:01.135Z,2.87
2018-04-11T16:46:28.752Z,4.17
2018-04-11T16:48:56.469Z,1.60
2018-04-11T16:51:24.379Z,1.80
2018-04-11T16:53:51.956Z,1.50
2018-04-11T16:56:20.267Z,1.83
2018-04-11T16:58:47.859Z,2.60
2018-04-11T17:01:15.471Z,1.70
2018-04-11T17:03:43.055Z,1.57
2018-04-11T17:06:10.612Z,4.80
2018-04-11T17:08:38.989Z,2.40
2018-04-11T17:11:06.547Z,5.70
2018-04-11T17:13:42.149Z,1.30
2018-04-11T17:16:10.456Z,2.10
2018-04-11T17:18:37.991Z,4.20
2018-04-11T17:21:18.332Z,2.77
2018-04-11T17:23:58.397Z,3.23
2018-04-11T17:26:38.705Z,1.90
2018-04-11T17:29:19.372Z,2.43
2018-04-11T17:31:46.928Z,3.67
2018-04-11T17:34:14.510Z,2.57
2018-04-11T17:36:42.063Z,1.50
2018-04-11T17:39:10.280Z,1.23
2018-04-11T17:41:38.636Z,3.30
2018-04-11T17:44:06.204Z,120.80
2018-04-11T17:46:34.490Z,3.53
2018-04-11T17:49:02.032Z,1.40
2018-04-11T17:51:29.597Z,2.73
2018-04-11T17:53:57.584Z,2.30
2018-04-11T17:56:25.441Z,1.83
2018-04-11T17:58:53.206Z,2.57
2018-04-11T18:01:21.514Z,1.70
2018-04-11T18:03:49.964Z,2.20
2018-04-11T18:06:18.638Z,239.60
2018-04-11T18:08:46.484Z,1383.93
2018-04-11T18:11:14.023Z,63.83
2018-04-11T18:13:41.585Z,75.53
2018-04-11T18:16:09.163Z,1999.90
2018-04-11T18:18:36.719Z,1999.90
2018-04-11T18:21:04.524Z,1999.90
2018-04-11T18:23:32.068Z,1999.90
2018-04-11T18:25:59.590Z,3.00
2018-04-11T18:28:27.126Z,1.63
2018-04-11T18:30:54.671Z,4.00
2018-04-11T18:33:22.193Z,2.73
2018-04-11T18:35:50.481Z,2.87
2018-04-11T18:38:18.047Z,2.33
2018-04-11T18:40:45.566Z,6.43
2018-04-11T18:43:13.127Z,1641.93
2018-04-11T18:45:40.690Z,15.67
2018-04-11T18:48:08.239Z,1.80
2018-04-11T18:50:36.032Z,2.63
2018-04-11T18:53:03.662Z,3.23
2018-04-11T18:55:31.369Z,3.30
2018-04-11T18:57:58.994Z,2.07
2018-04-11T19:00:31.477Z,5.93
2018-04-11T19:02:59.155Z,3.33
2018-04-11T19:05:26.812Z,1.70
2018-04-11T19:07:55.116Z,4.27
2018-04-11T19:10:22.677Z,3.70
2018-04-11T19:12:50.307Z,1.87
2018-04-11T19:15:18.635Z,3.43
2018-04-11T19:17:46.175Z,3.00
2018-04-11T19:20:14.505Z,4.30
2018-04-11T19:22:42.046Z,2.63
2018-04-11T19:25:15.009Z,2.93
2018-04-11T19:27:42.560Z,4.13
2018-04-11T19:30:10.159Z,4.67
2018-04-11T19:32:37.738Z,3.00
2018-04-11T19:35:05.517Z,5.10
2018-04-11T19:37:33.399Z,2.87
2018-04-11T19:40:00.984Z,4.00
2018-04-11T19:42:28.527Z,3.37
2018-04-11T19:44:56.097Z,2.83
2018-04-11T19:47:24.768Z,6.90
2018-04-11T19:49:52.339Z,5.33
2018-04-11T19:52:20.054Z,3.27
2018-04-11T19:54:48.372Z,4.50
2018-04-11T19:57:15.937Z,6.07
2018-04-11T19:59:44.273Z,4.60
2018-04-11T20:02:12.432Z,5.33
2018-04-11T20:04:39.968Z,5.47
2018-04-11T20:07:07.578Z,5.40
2018-04-11T20:09:35.202Z,4.10
2018-04-11T20:12:02.730Z,6.47
2018-04-11T20:14:30.299Z,5.63
2018-04-11T20:16:57.833Z,5.80
2018-04-11T20:19:25.389Z,4.00
2018-04-11T20:21:53.173Z,5.10
2018-04-11T20:24:20.724Z,6.03
2018-04-11T20:26:48.296Z,6.37
2018-04-11T20:29:15.846Z,4.70
2018-04-11T20:31:44.494Z,5.83
2018-04-11T20:34:12.239Z,5.27
2018-04-11T20:36:39.803Z,6.17
2018-04-11T20:39:14.204Z,5.87
2018-04-11T20:41:41.777Z,6.67
2018-04-11T20:44:10.095Z,6.40
2018-04-11T20:46:37.620Z,5.30
2018-04-11T20:49:05.196Z,5.00
2018-04-11T20:51:33.078Z,5.60
2018-04-11T20:54:03.902Z,4.90
2018-04-11T20:56:31.592Z,5.03
2018-04-11T20:58:59.260Z,4.90
2018-04-11T21:01:26.805Z,6.50
2018-04-11T21:03:54.373Z,5.00
2018-04-11T21:06:26.029Z,4.53
2018-04-11T21:08:53.604Z,6.37
2018-04-11T21:11:23.463Z,4.87
2018-04-11T21:13:51.907Z,7.87
2018-04-11T21:16:20.285Z,5.13
2018-04-11T21:18:48.601Z,6.20
2018-04-11T21:21:16.239Z,5.00
2018-04-11T21:23:43.823Z,5.47
2018-04-11T21:26:11.388Z,7.17
2018-04-11T21:28:38.903Z,5.03
2018-04-11T21:31:07.223Z,5.47
2018-04-11T21:33:35.571Z,6.67
2018-04-11T21:36:03.161Z,8.33
2018-04-11T21:38:31.611Z,5.13
2018-04-11T21:41:06.056Z,5.70
2018-04-11T21:43:33.652Z,5.83
2018-04-11T21:46:01.210Z,7.30
2018-04-11T21:48:30.921Z,7.17
2018-04-11T21:50:58.523Z,7.73
2018-04-11T21:53:26.289Z,7.20
2018-04-11T21:55:53.883Z,5.00
2018-04-11T21:58:21.436Z,6.60
2018-04-11T22:00:48.986Z,8.27
2018-04-11T22:03:16.521Z,5.27
2018-04-11T22:05:44.120Z,6.63
2018-04-11T22:08:11.707Z,7.83
2018-04-11T22:10:39.334Z,5.67
2018-04-11T22:13:06.866Z,8.97
2018-04-11T22:15:34.557Z,6.60
2018-04-11T22:18:02.118Z,5.10
2018-04-11T22:20:29.655Z,6.17
2018-04-11T22:22:57.239Z,8.60
2018-04-11T22:25:24.821Z,6.47
2018-04-11T22:27:53.833Z,6.50
2018-04-11T22:30:21.402Z,9.47
2018-04-11T22:32:49.685Z,8.80
2018-04-11T22:35:17.287Z,6.40
2018-04-11T22:37:44.875Z,9.07
2018-04-11T22:40:12.769Z,8.37
2018-04-11T22:42:40.375Z,6.80
2018-04-11T22:45:07.891Z,8.00
2018-04-11T22:47:35.473Z,6.73
2018-04-11T22:50:21.671Z,8.77
2018-04-11T22:52:50.016Z,9.57
2018-04-11T22:55:18.314Z,10.27
2018-04-11T22:57:45.867Z,12.20
2018-04-11T23:00:13.392Z,12.77
2018-04-11T23:02:41.730Z,9.83
2018-04-11T23:05:09.315Z,12.53
2018-04-11T23:07:36.979Z,10.33
2018-04-11T23:10:04.529Z,11.50
2018-04-11T23:12:32.858Z,11.23
2018-04-11T23:15:00.428Z,9.40
2018-04-11T23:17:28.292Z,12.13
2018-04-11T23:19:56.403Z,9.57
2018-04-11T23:22:24.052Z,11.37
2018-04-11T23:24:51.614Z,14.33
2018-04-11T23:27:19.201Z,9.43
2018-04-11T23:29:47.618Z,11.47
2018-04-11T23:32:15.179Z,11.37
2018-04-11T23:34:42.782Z,10.80
2018-04-11T23:37:10.404Z,12.13
2018-04-11T23:39:37.955Z,10.67
2018-04-11T23:42:05.509Z,10.83
2018-04-11T23:44:33.036Z,10.40
2018-04-11T23:47:01.363Z,10.37
2018-04-11T23:49:28.953Z,9.77
2018-04-11T23:51:56.569Z,11.23
2018-04-11T23:54:24.154Z,9.20
2018-04-11T23:56:51.680Z,9.67
2018-04-11T23:59:19.208Z,10.77
